Terminal Aerodrome Forecast
Issued by NWS Medford, OR

Home | Current Version | Previous Version | Text Only | Print | Product List | Glossary On
Versions: 1 2 3 4 5 6 7 8 9 10 11 12
812
FTUS46 KMFR 301147
TAFMFR
TAF
KMFR 301147Z 3012/0112 VRB03KT P6SM SCT250
     FM302000 31008KT P6SM SCT250
     FM302300 31010G18KT P6SM SCT250
     FM010400 VRB03KT P6SM SCT030
     FM011000 00000KT P6SM BKN030=

USA.gov is the U.S. government's official web portal to all federal, state and local government web resources and services.